Time;durP1;ratioP1;P1;durP2;ratioP2;P2;SDS_P1;SDS_P2;PMS_P1;PMS_P2;Temp;Humidity;BMP_temperature;BMP_pressure;BME280_temperature;BME280_humidity;BME280_pressure;Samples;Min_cycle;Max_cycle;Signal;HPM_P1;HPM_P2
2024/01/12 00:00:06;;;;;;;5.90;2.40;;;;;;;-17.06;70.25;138165.70;107198;1266;25398;-56
2024/01/12 00:02:57;;;;;;;6.40;2.70;;;;;;;-17.07;70.66;138163.73;107112;1266;25440;-54
2024/01/12 00:05:45;;;;;;;5.80;2.40;;;;;;;-17.11;70.84;138153.48;107080;1266;25348;-55
2024/01/12 00:08:32;;;;;;;5.70;2.20;;;;;;;-17.16;71.09;138142.00;107074;1271;25442;-55
2024/01/12 00:11:18;;;;;;;5.70;1.90;;;;;;;-17.18;71.30;138136.84;107116;1266;25274;-59
2024/01/12 00:14:03;;;;;;;4.80;1.80;;;;;;;-17.22;71.47;138126.09;107122;1266;25373;-56
2024/01/12 00:16:49;;;;;;;4.30;1.90;;;;;;;-17.25;71.85;138119.50;107366;1266;24228;-54
2024/01/12 00:19:34;;;;;;;4.50;1.90;;;;;;;-17.29;71.88;138109.97;107264;1265;22639;-56
2024/01/12 00:22:20;;;;;;;5.40;1.90;;;;;;;-17.35;72.23;138096.28;107374;1266;25414;-55
2024/01/12 00:25:06;;;;;;;3.30;1.70;;;;;;;-17.38;72.68;138090.17;107160;1266;25369;-59
2024/01/12 00:27:52;;;;;;;4.20;1.60;;;;;;;-17.39;73.06;138086.75;107069;1266;25390;-54
2024/01/12 00:30:38;;;;;;;6.70;1.70;;;;;;;-17.43;73.22;138077.00;107155;1264;24209;-56
2024/01/12 00:33:23;;;;;;;4.90;2.10;;;;;;;-17.47;73.60;138065.97;107097;1265;25414;-60
2024/01/12 00:36:09;;;;;;;7.90;2.50;;;;;;;-17.49;73.73;138060.84;107235;1266;25369;-58
2024/01/12 00:38:55;;;;;;;8.20;3.40;;;;;;;-17.54;74.00;138050.09;107149;1269;25412;-55
2024/01/12 00:41:41;;;;;;;7.70;2.50;;;;;;;-17.56;74.41;138045.95;107300;1266;25346;-55
2024/01/12 00:44:27;;;;;;;5.00;2.40;;;;;;;-17.58;74.39;138040.33;107014;1265;25446;-56
2024/01/12 00:47:13;;;;;;;11.30;2.20;;;;;;;-17.62;74.53;138031.78;107024;1261;25531;-56
2024/01/12 00:49:59;;;;;;;6.80;2.80;;;;;;;-17.62;74.88;138029.58;107061;1266;22530;-57
2024/01/12 00:52:45;;;;;;;4.30;2.10;;;;;;;-17.62;75.10;138029.81;107135;1266;25387;-57
2024/01/12 00:55:30;;;;;;;4.80;1.60;;;;;;;-17.63;75.15;138029.08;107198;1266;23877;-55
2024/01/12 00:58:16;;;;;;;4.00;2.10;;;;;;;-17.65;75.25;138024.45;107127;1260;25587;-56
2024/01/12 01:01:03;;;;;;;7.60;1.90;;;;;;;-17.68;75.46;138016.88;107191;1265;23346;-57
2024/01/12 01:03:49;;;;;;;8.80;2.60;;;;;;;-17.69;75.73;138015.16;107197;1261;25497;-55
2024/01/12 01:06:34;;;;;;;7.20;2.50;;;;;;;-17.72;76.25;138008.31;107162;1266;25344;-54
2024/01/12 01:09:20;;;;;;;6.00;2.70;;;;;;;-17.72;76.34;138007.59;107373;1266;25401;-58
2024/01/12 01:12:06;;;;;;;6.10;3.00;;;;;;;-17.74;76.33;138004.41;107213;1266;24182;-57
2024/01/12 01:14:51;;;;;;;5.40;2.10;;;;;;;-17.75;76.51;138001.72;107176;1266;25344;-54
2024/01/12 01:17:38;;;;;;;5.00;2.40;;;;;;;-17.77;76.75;137997.33;107289;1266;25391;-56
2024/01/12 01:20:23;;;;;;;4.40;1.80;;;;;;;-17.77;76.63;137996.34;107224;1267;25369;-58
2024/01/12 01:23:09;;;;;;;5.70;2.30;;;;;;;-17.78;77.06;137993.91;107124;1265;25340;-59
2024/01/12 01:25:54;;;;;;;4.40;1.90;;;;;;;-17.79;77.24;137990.28;107090;1267;25377;-58
2024/01/12 01:28:40;;;;;;;5.20;2.30;;;;;;;-17.81;77.28;137985.66;107047;1259;25688;-57
2024/01/12 01:31:25;;;;;;;6.90;2.80;;;;;;;-17.84;77.48;137979.78;107119;1266;25411;-58
2024/01/12 01:34:11;;;;;;;4.40;2.00;;;;;;;-17.87;77.66;137971.97;106963;1266;25462;-58
2024/01/12 01:37:01;;;;;;;4.10;2.10;;;;;;;-17.88;78.11;137968.55;107219;1266;25465;-55
2024/01/12 01:39:47;;;;;;;5.30;1.90;;;;;;;-17.89;78.16;137965.61;107082;1266;25468;-57
2024/01/12 01:42:32;;;;;;;6.40;2.80;;;;;;;-17.91;78.60;137961.22;107113;1260;24209;-59
2024/01/12 01:45:18;;;;;;;5.70;2.30;;;;;;;-17.94;78.65;137955.59;107044;1266;25489;-59
2024/01/12 01:48:04;;;;;;;6.30;2.60;;;;;;;-17.95;78.79;137951.72;107070;1263;26582;-59
2024/01/12 01:50:52;;;;;;;5.40;2.00;;;;;;;-17.99;78.98;137943.13;107178;1267;25462;-58
2024/01/12 01:53:38;;;;;;;4.70;2.30;;;;;;;-18.03;79.38;137931.91;106943;1266;25535;-55
2024/01/12 01:56:24;;;;;;;5.60;2.10;;;;;;;-18.08;79.71;137921.66;106985;1264;25439;-56
2024/01/12 01:59:10;;;;;;;6.00;2.50;;;;;;;-18.12;79.98;137911.66;107072;1266;25334;-59
2024/01/12 02:01:56;;;;;;;7.00;2.50;;;;;;;-18.16;80.39;137902.36;106948;1266;25465;-55
2024/01/12 02:04:42;;;;;;;5.80;2.40;;;;;;;-18.19;80.52;137897.00;106984;1272;25381;-58
2024/01/12 02:07:28;;;;;;;7.30;2.40;;;;;;;-18.20;80.79;137894.08;106946;1266;25398;-58
2024/01/12 02:10:13;;;;;;;5.90;2.40;;;;;;;-18.23;81.21;137886.02;107182;1266;25558;-55
2024/01/12 02:13:00;;;;;;;4.40;2.20;;;;;;;-18.25;81.78;137881.63;107079;1266;25334;-57
2024/01/12 02:15:46;;;;;;;7.90;2.10;;;;;;;-18.27;82.06;137876.72;107159;1266;25488;-56
2024/01/12 02:18:32;;;;;;;6.90;2.10;;;;;;;-18.30;82.22;137868.44;107163;1253;23241;-58
2024/01/12 02:21:18;;;;;;;5.60;2.20;;;;;;;-18.35;82.65;137857.92;107078;1259;25465;-58
2024/01/12 02:24:04;;;;;;;6.70;2.60;;;;;;;-18.37;82.83;137852.58;107061;1263;25422;-54
2024/01/12 02:26:49;;;;;;;5.70;2.60;;;;;;;-18.38;83.06;137849.88;107115;1267;25385;-58
2024/01/12 02:29:35;;;;;;;8.20;3.30;;;;;;;-18.42;83.28;137840.59;107094;1266;25344;-56
2024/01/12 02:32:20;;;;;;;7.40;2.60;;;;;;;-18.48;83.76;137825.22;107018;1266;25344;-54
2024/01/12 02:35:07;;;;;;;7.30;2.90;;;;;;;-18.55;83.80;137809.84;107064;1264;25539;-58
2024/01/12 02:37:53;;;;;;;6.70;3.00;;;;;;;-18.58;84.44;137801.53;107111;1266;25414;-57
2024/01/12 02:40:38;;;;;;;6.50;2.80;;;;;;;-18.61;85.14;137795.22;107219;1263;25372;-53
2024/01/12 02:43:24;;;;;;;7.90;2.50;;;;;;;-18.61;85.22;137796.17;107061;1272;25402;-57
2024/01/12 02:46:10;;;;;;;10.40;3.30;;;;;;;-18.62;85.30;137793.47;107212;1266;25452;-54
2024/01/12 02:48:56;;;;;;;6.00;2.80;;;;;;;-18.67;85.42;137780.30;107146;1265;25298;-57
2024/01/12 02:51:41;;;;;;;7.10;2.40;;;;;;;-18.72;85.87;137769.83;107166;1265;25446;-56
2024/01/12 02:54:26;;;;;;;12.20;3.70;;;;;;;-18.75;86.45;137762.53;107130;1266;23222;-56
2024/01/12 02:57:12;;;;;;;6.90;3.00;;;;;;;-18.77;86.46;137756.94;107126;1266;22781;-55
2024/01/12 02:59:58;;;;;;;10.60;3.10;;;;;;;-18.79;86.74;137750.59;107187;1266;25522;-54
2024/01/12 03:02:43;;;;;;;7.90;2.90;;;;;;;-18.84;87.10;137739.59;107100;1266;25375;-56
2024/01/12 03:05:29;;;;;;;9.70;2.70;;;;;;;-18.87;87.62;137732.53;107195;1266;24346;-55
2024/01/12 03:08:14;;;;;;;6.80;2.60;;;;;;;-18.91;87.86;137724.48;107144;1266;25498;-57
2024/01/12 03:11:00;;;;;;;6.30;2.60;;;;;;;-18.95;88.27;137713.98;107108;1266;24248;-57
2024/01/12 03:13:45;;;;;;;8.30;3.00;;;;;;;-18.96;88.32;137710.81;107061;1267;25382;-55
2024/01/12 03:16:31;;;;;;;7.60;2.70;;;;;;;-18.97;88.72;137709.59;107321;1266;25458;-60
2024/01/12 03:19:16;;;;;;;4.40;2.10;;;;;;;-18.97;88.67;137709.38;107178;1272;25335;-57
2024/01/12 03:22:02;;;;;;;5.20;2.00;;;;;;;-18.99;89.00;137704.47;107059;1270;25488;-60
2024/01/12 03:24:48;;;;;;;5.40;2.30;;;;;;;-19.00;89.38;137701.55;107117;1266;25440;-58
2024/01/12 03:27:33;;;;;;;6.00;2.10;;;;;;;-19.04;89.45;137693.00;107120;1266;25418;-54
2024/01/12 03:30:19;;;;;;;5.70;2.30;;;;;;;-19.08;89.73;137682.77;107196;1267;25337;-57
2024/01/12 03:33:04;;;;;;;6.10;1.90;;;;;;;-19.10;90.32;137677.66;107016;1271;25363;-54
2024/01/12 03:35:50;;;;;;;4.30;1.70;;;;;;;-19.13;90.40;137671.80;107002;1266;25395;-56
2024/01/12 03:38:35;;;;;;;4.30;1.90;;;;;;;-19.15;90.90;137665.94;106990;1270;25420;-54
2024/01/12 03:41:21;;;;;;;5.20;2.50;;;;;;;-19.17;90.92;137661.78;106920;1275;25443;-56
2024/01/12 03:44:08;;;;;;;5.50;2.00;;;;;;;-19.21;91.35;137652.28;106912;1266;25344;-56
2024/01/12 03:46:53;;;;;;;6.70;1.90;;;;;;;-19.26;91.43;137641.28;106992;1264;25375;-55
2024/01/12 03:49:39;;;;;;;6.50;1.90;;;;;;;-19.30;91.85;137631.03;106953;1266;25527;-58
2024/01/12 03:52:24;;;;;;;4.60;1.90;;;;;;;-19.35;92.72;137619.09;106979;1264;25396;-55
2024/01/12 03:55:09;;;;;;;5.10;1.60;;;;;;;-19.39;93.04;137609.58;106962;1270;25362;-57
2024/01/12 03:57:55;;;;;;;6.30;2.00;;;;;;;-19.41;93.38;137603.72;106995;1266;25395;-56
2024/01/12 04:00:40;;;;;;;9.50;2.20;;;;;;;-19.44;93.85;137595.45;106919;1266;25465;-55
2024/01/12 04:03:26;;;;;;;8.60;2.30;;;;;;;-19.44;93.89;137595.45;106938;1266;25719;-57
2024/01/12 04:06:11;;;;;;;5.30;2.50;;;;;;;-19.45;94.17;137593.00;106955;1256;25468;-56
2024/01/12 04:08:57;;;;;;;6.70;2.30;;;;;;;-19.44;94.62;137596.41;106937;1270;25521;-60
2024/01/12 04:11:43;;;;;;;5.20;2.00;;;;;;;-19.42;94.76;137600.31;106948;1266;25369;-56
2024/01/12 04:14:28;;;;;;;4.00;2.30;;;;;;;-19.44;94.79;137597.14;106933;1266;25366;-57
2024/01/12 04:17:16;;;;;;;6.50;2.10;;;;;;;-19.49;94.97;137586.17;106914;1267;25366;-55
2024/01/12 04:20:02;;;;;;;8.70;2.20;;;;;;;-19.51;95.29;137581.78;107019;1266;25382;-54
2024/01/12 04:22:47;;;;;;;10.30;3.30;;;;;;;-19.52;95.67;137579.34;107097;1271;25917;-58
2024/01/12 04:25:33;;;;;;;8.70;2.70;;;;;;;-19.52;95.75;137578.13;107104;1266;25411;-56
2024/01/12 04:28:18;;;;;;;7.10;2.50;;;;;;;-19.52;96.09;137579.83;106987;1266;25394;-57
2024/01/12 04:31:04;;;;;;;14.40;2.80;;;;;;;-19.54;95.93;137573.73;107013;1274;25383;-57
2024/01/12 04:33:50;;;;;;;13.20;4.70;;;;;;;-19.56;96.05;137568.38;107073;1271;25504;-58
2024/01/12 04:36:36;;;;;;;38.30;12.50;;;;;;;-19.59;96.44;137561.56;107067;1265;25398;-56
2024/01/12 04:39:21;;;;;;;26.70;8.80;;;;;;;-19.61;96.92;137557.42;107102;1267;25383;-56
2024/01/12 04:42:07;;;;;;;40.60;14.60;;;;;;;-19.61;97.00;137555.95;107095;1266;25401;-56
2024/01/12 04:44:52;;;;;;;23.50;8.40;;;;;;;-19.63;97.17;137552.30;107117;1272;25462;-56
2024/01/12 04:47:38;;;;;;;17.10;7.00;;;;;;;-19.67;97.65;137542.33;107015;1266;23267;-58
2024/01/12 04:50:24;;;;;;;15.50;6.50;;;;;;;-19.68;97.60;137539.41;107211;1270;25462;-53
2024/01/12 04:53:09;;;;;;;8.00;3.70;;;;;;;-19.68;97.95;137538.70;107091;1264;25407;-59
2024/01/12 04:55:55;;;;;;;6.60;3.70;;;;;;;-19.69;97.95;137537.47;107023;1270;25472;-59
2024/01/12 04:58:40;;;;;;;13.60;3.00;;;;;;;-19.71;98.37;137533.09;107059;1266;25398;-56
2024/01/12 05:01:26;;;;;;;9.50;3.30;;;;;;;-19.75;98.50;137523.33;107067;1256;25363;-56
2024/01/12 05:04:12;;;;;;;7.00;3.20;;;;;;;-19.77;98.76;137518.94;107045;1266;25436;-56
2024/01/12 05:06:58;;;;;;;6.70;2.80;;;;;;;-19.78;98.92;137515.78;106990;1266;23366;-58
2024/01/12 05:09:44;;;;;;;7.60;2.80;;;;;;;-19.82;99.02;137507.50;107166;1272;25337;-58
2024/01/12 05:12:31;;;;;;;7.40;3.30;;;;;;;-19.83;99.50;137502.84;107055;1266;25392;-55
2024/01/12 05:15:18;;;;;;;8.00;2.60;;;;;;;-19.85;99.78;137498.95;107122;1266;25372;-56
2024/01/12 05:18:04;;;;;;;12.20;6.90;;;;;;;-19.87;99.95;137495.55;107078;1254;25382;-57
2024/01/12 05:20:50;;;;;;;10.90;6.30;;;;;;;-19.89;100.00;137488.48;107102;1266;25390;-55
2024/01/12 05:23:36;;;;;;;7.60;3.00;;;;;;;-19.96;99.99;137474.81;107034;1266;25590;-56
2024/01/12 05:26:22;;;;;;;8.10;4.00;;;;;;;-19.97;100.00;137470.91;107066;1273;25494;-60
2024/01/12 05:29:08;;;;;;;8.20;3.40;;;;;;;-19.95;100.00;137475.08;106927;1276;25405;-57
2024/01/12 05:31:53;;;;;;;10.20;4.10;;;;;;;-19.97;100.00;137470.92;106982;1274;25335;-55
2024/01/12 05:34:39;;;;;;;11.10;4.60;;;;;;;-19.97;100.00;137471.16;106361;1275;25384;-54
2024/01/12 05:37:24;;;;;;;5.30;3.00;;;;;;;-19.98;100.00;137468.23;106976;1263;25383;-55
2024/01/12 05:40:10;;;;;;;8.50;3.10;;;;;;;-20.02;100.00;137460.22;107006;1273;25484;-57
2024/01/12 05:42:56;;;;;;;9.30;2.90;;;;;;;-20.05;100.00;137452.66;106989;1272;25363;-57
2024/01/12 05:45:42;;;;;;;9.50;3.20;;;;;;;-20.08;100.00;137443.63;107034;1266;25335;-56
2024/01/12 05:48:27;;;;;;;5.90;3.10;;;;;;;-20.08;100.00;137444.11;107019;1274;25497;-55
2024/01/12 05:51:13;;;;;;;9.10;4.10;;;;;;;-20.07;100.00;137447.78;107067;1257;25363;-59
2024/01/12 05:53:59;;;;;;;9.10;4.30;;;;;;;-20.09;100.00;137443.16;107141;1266;25338;-57
2024/01/12 05:56:45;;;;;;;8.20;3.90;;;;;;;-20.03;100.00;137457.78;107037;1273;25450;-58
2024/01/12 05:59:32;;;;;;;13.30;5.70;;;;;;;-19.99;100.00;137466.53;107149;1270;25488;-58
2024/01/12 06:02:18;;;;;;;9.30;4.00;;;;;;;-19.94;100.00;137479.47;107114;1272;25631;-56
2024/01/12 06:05:04;;;;;;;9.70;4.10;;;;;;;-19.77;100.00;137518.70;107151;1266;25363;-59
2024/01/12 06:07:49;;;;;;;14.20;4.60;;;;;;;-19.67;100.00;137542.09;106991;1266;25367;-54
2024/01/12 06:10:35;;;;;;;22.10;9.00;;;;;;;-19.55;100.00;137570.34;107102;1273;25372;-57
2024/01/12 06:13:20;;;;;;;10.90;4.40;;;;;;;-19.24;99.88;137643.73;107045;1266;25369;-56
2024/01/12 06:16:06;;;;;;;11.00;4.50;;;;;;;-18.75;98.35;137761.30;107096;1266;25408;-56
2024/01/12 06:18:51;;;;;;;14.50;5.80;;;;;;;-18.03;95.17;137932.41;107133;1272;25372;-54
2024/01/12 06:21:37;;;;;;;11.10;5.40;;;;;;;-17.26;90.65;138116.09;107153;1267;25372;-57
2024/01/12 06:24:24;;;;;;;7.90;3.70;;;;;;;-16.59;86.17;138276.42;107169;1272;25370;-58
2024/01/12 06:27:10;;;;;;;11.40;5.00;;;;;;;-15.93;81.01;138434.48;107099;1254;25360;-57
2024/01/12 06:29:55;;;;;;;13.00;5.40;;;;;;;-15.19;77.67;138611.70;107184;1267;25424;-57
2024/01/12 06:32:41;;;;;;;10.80;4.90;;;;;;;-14.59;73.63;138754.78;107001;1272;23895;-55
2024/01/12 06:35:26;;;;;;;10.90;5.20;;;;;;;-14.02;70.70;138892.05;107129;1266;25366;-55
2024/01/12 06:38:12;;;;;;;9.60;4.50;;;;;;;-13.35;68.24;139052.97;107089;1268;23346;-58
2024/01/12 06:40:58;;;;;;;10.50;4.90;;;;;;;-12.90;63.81;139159.72;107215;1267;25531;-54
2024/01/12 06:43:43;;;;;;;12.40;5.30;;;;;;;-12.39;62.53;139282.27;107086;1272;25439;-59
2024/01/12 06:46:29;;;;;;;9.10;4.60;;;;;;;-12.09;60.10;139355.47;107108;1267;25337;-57
2024/01/12 06:49:14;;;;;;;10.60;5.20;;;;;;;-11.43;58.48;139513.47;107118;1273;25337;-55
2024/01/12 06:52:00;;;;;;;11.50;5.60;;;;;;;-10.82;55.85;139660.33;107126;1274;25612;-61
2024/01/12 06:54:45;;;;;;;11.40;5.90;;;;;;;-10.50;54.25;139738.33;107144;1263;25488;-56
2024/01/12 06:57:32;;;;;;;10.40;4.70;;;;;;;-10.43;52.74;139754.09;107045;1272;25375;-62
2024/01/12 07:00:19;;;;;;;13.20;6.00;;;;;;;-10.61;52.66;139711.23;106934;1266;25368;-62
2024/01/12 07:03:06;;;;;;;18.70;7.60;;;;;;;-10.38;52.09;139766.16;107106;1272;25520;-60
2024/01/12 07:05:52;;;;;;;13.30;6.20;;;;;;;-10.12;50.95;139827.63;107091;1256;22546;-63
2024/01/12 07:08:38;;;;;;;10.60;5.60;;;;;;;-10.16;50.73;139818.78;107153;1275;25424;-60
2024/01/12 07:11:24;;;;;;;13.00;5.80;;;;;;;-9.96;50.04;139868.03;107339;1267;25474;-63
2024/01/12 07:14:11;;;;;;;18.80;7.20;;;;;;;-9.85;49.37;139895.59;107021;1267;25446;-60
2024/01/12 07:16:56;;;;;;;12.60;7.20;;;;;;;-9.88;48.56;139886.72;107225;1267;25424;-62
2024/01/12 07:19:44;;;;;;;16.60;9.20;;;;;;;-10.24;48.97;139800.83;107159;1275;25390;-63
2024/01/12 07:22:29;;;;;;;14.30;6.40;;;;;;;-10.36;49.01;139770.58;107154;1275;25411;-62
2024/01/12 07:25:15;;;;;;;9.90;5.10;;;;;;;-10.21;48.57;139806.95;107182;1273;25365;-59
2024/01/12 07:28:03;;;;;;;14.00;6.30;;;;;;;-10.20;49.11;139809.67;107122;1272;25296;-62
2024/01/12 07:30:48;;;;;;;16.40;6.80;;;;;;;-9.90;48.39;139881.55;107203;1269;25337;-62
2024/01/12 07:33:33;;;;;;;15.70;7.30;;;;;;;-9.76;48.43;139916.05;107156;1267;25477;-61
2024/01/12 07:36:20;;;;;;;15.70;7.40;;;;;;;-9.73;47.76;139922.67;107251;1267;25382;-63
2024/01/12 07:39:07;;;;;;;17.80;8.30;;;;;;;-9.50;47.49;139977.38;107099;1275;22525;-64
2024/01/12 07:41:54;;;;;;;15.00;7.20;;;;;;;-9.34;47.39;140015.55;107261;1267;25532;-64
2024/01/12 07:44:42;;;;;;;14.80;6.70;;;;;;;-9.04;46.78;140088.75;106882;1254;24759;-64
2024/01/12 07:47:28;;;;;;;10.30;5.40;;;;;;;-8.78;45.96;140152.34;107253;1265;25348;-61
2024/01/12 07:50:17;;;;;;;13.80;6.50;;;;;;;-8.69;45.89;140173.80;107215;1272;25493;-62
2024/01/12 07:53:03;;;;;;;17.70;8.90;;;;;;;-8.70;45.07;140170.38;107181;1267;25464;-64
2024/01/12 07:55:52;;;;;;;13.90;6.30;;;;;;;-8.56;45.03;140205.13;106915;1270;25465;-65
2024/01/12 07:58:39;;;;;;;12.60;6.50;;;;;;;-8.76;44.37;140155.81;106950;1268;25338;-63
2024/01/12 08:01:24;;;;;;;11.90;6.40;;;;;;;-8.94;44.70;140111.92;107008;1270;25497;-64
2024/01/12 08:04:10;;;;;;;10.60;5.00;;;;;;;-9.23;45.24;140042.17;107024;1275;22867;-65
2024/01/12 08:06:56;;;;;;;10.00;5.30;;;;;;;-9.03;45.46;140090.72;106965;1275;25412;-62
2024/01/12 08:09:42;;;;;;;9.20;4.50;;;;;;;-8.81;44.50;140144.95;107019;1275;25382;-60
2024/01/12 08:12:28;;;;;;;9.50;4.30;;;;;;;-8.88;44.37;140126.22;107165;1266;25348;-63
2024/01/12 08:15:14;;;;;;;10.30;4.70;;;;;;;-9.34;44.26;140015.80;107105;1270;25347;-62
2024/01/12 08:18:00;;;;;;;11.10;6.10;;;;;;;-9.68;45.14;139934.75;107033;1258;25501;-60
2024/01/12 08:20:48;;;;;;;10.70;5.80;;;;;;;-9.83;45.46;139898.05;107041;1267;25427;-60
2024/01/12 08:23:34;;;;;;;12.40;5.50;;;;;;;-9.91;45.79;139878.34;107163;1267;25344;-65
2024/01/12 08:26:21;;;;;;;14.60;5.80;;;;;;;-10.08;46.19;139837.22;107423;1269;23888;-64
2024/01/12 08:29:08;;;;;;;9.70;4.20;;;;;;;-10.37;45.79;139768.36;107069;1257;25523;-62
2024/01/12 08:31:53;;;;;;;10.10;5.30;;;;;;;-10.93;46.78;139635.22;107457;1269;25424;-64
2024/01/12 08:34:41;;;;;;;12.60;6.30;;;;;;;-11.50;48.23;139497.25;107108;1267;25446;-61
2024/01/12 08:37:28;;;;;;;14.60;7.30;;;;;;;-11.83;49.60;139417.84;107260;1264;25328;-64
2024/01/12 08:40:13;;;;;;;13.10;5.90;;;;;;;-11.88;49.92;139406.56;107315;1273;23951;-61
2024/01/12 08:43:01;;;;;;;8.70;4.60;;;;;;;-12.24;50.23;139319.59;107297;1275;25885;-60
2024/01/12 08:45:46;;;;;;;8.90;3.50;;;;;;;-12.53;50.90;139249.59;106830;1264;1003032;-62
2024/01/12 08:48:32;;;;;;;10.40;4.80;;;;;;;-12.89;51.56;139163.16;107176;1267;25405;-65
2024/01/12 08:51:18;;;;;;;6.80;3.50;;;;;;;-13.26;52.50;139075.28;107359;1261;25536;-60
2024/01/12 08:54:04;;;;;;;10.10;3.80;;;;;;;-13.62;53.46;138986.97;107226;1267;25334;-57
2024/01/12 08:56:51;;;;;;;8.00;3.40;;;;;;;-13.97;54.27;138904.80;107622;1267;25433;-61
2024/01/12 08:59:37;;;;;;;8.20;3.10;;;;;;;-14.43;55.17;138794.00;107128;1265;25337;-58
2024/01/12 09:02:22;;;;;;;10.60;4.50;;;;;;;-14.78;56.47;138710.91;107311;1257;25346;-60
2024/01/12 09:05:09;;;;;;;10.70;4.30;;;;;;;-14.75;57.21;138716.33;107652;1260;24244;-62
2024/01/12 09:07:54;;;;;;;10.00;3.60;;;;;;;-14.66;57.49;138739.09;108886;1260;22535;-64
2024/01/12 09:10:40;;;;;;;6.20;3.00;;;;;;;-14.86;57.30;138691.58;107407;1261;25338;-61
2024/01/12 09:13:30;;;;;;;6.50;2.70;;;;;;;-15.21;58.32;138607.31;107461;1261;25781;-61
2024/01/12 09:16:16;;;;;;;7.50;3.60;;;;;;;-15.49;58.96;138541.19;107701;1261;25418;-61
2024/01/12 09:19:02;;;;;;;9.30;4.10;;;;;;;-15.74;60.16;138481.72;107439;1260;22541;-61
2024/01/12 09:21:48;;;;;;;10.60;3.60;;;;;;;-15.92;60.65;138437.42;107485;1256;22532;-62
2024/01/12 09:24:34;;;;;;;8.10;3.10;;;;;;;-16.13;61.59;138388.00;107748;1260;25287;-61
2024/01/12 09:27:20;;;;;;;12.00;3.10;;;;;;;-16.33;62.29;138339.05;107503;1259;22950;-62
2024/01/12 09:30:07;;;;;;;8.90;3.30;;;;;;;-16.40;63.22;138323.16;107488;1254;25381;-62
2024/01/12 09:32:53;;;;;;;13.20;4.90;;;;;;;-16.48;63.52;138304.56;107028;1260;25348;-61
2024/01/12 09:35:40;;;;;;;13.20;4.70;;;;;;;-16.55;63.99;138287.67;106984;1269;25338;-60
2024/01/12 09:38:26;;;;;;;10.00;3.70;;;;;;;-16.62;64.20;138271.03;107222;1263;25375;-61
2024/01/12 09:41:12;;;;;;;8.90;3.10;;;;;;;-16.74;64.76;138240.00;107437;1267;25362;-62
2024/01/12 09:43:59;;;;;;;9.70;3.10;;;;;;;-16.87;65.17;138210.19;106921;1264;25357;-62
2024/01/12 09:46:58;;;;;;;5.70;2.80;;;;;;;-16.96;65.44;138190.16;107598;1267;25456;-62
2024/01/12 09:49:44;;;;;;;12.50;4.50;;;;;;;-17.03;66.08;138172.06;107645;1260;25532;-60
2024/01/12 09:52:31;;;;;;;11.50;3.90;;;;;;;-16.99;66.50;138180.59;107304;1275;22577;-60
2024/01/12 09:55:18;;;;;;;10.30;4.30;;;;;;;-16.99;66.69;138180.63;107115;1256;25452;-60
2024/01/12 09:58:04;;;;;;;13.10;5.50;;;;;;;-16.95;66.83;138192.34;107151;1260;25337;-59
2024/01/12 10:00:51;;;;;;;11.10;4.10;;;;;;;-16.82;66.71;138222.42;107047;1261;25564;-59
2024/01/12 10:03:38;;;;;;;6.50;3.40;;;;;;;-16.75;66.89;138237.78;107197;1255;25300;-60
2024/01/12 10:06:25;;;;;;;10.30;4.90;;;;;;;-16.71;67.06;138249.52;107049;1267;25443;-60
2024/01/12 10:09:11;;;;;;;9.70;4.60;;;;;;;-16.64;66.47;138266.41;107483;1260;22990;-60
2024/01/12 10:11:56;;;;;;;12.40;5.20;;;;;;;-16.65;66.74;138261.98;107727;1275;25417;-60
2024/01/12 10:14:42;;;;;;;6.80;3.70;;;;;;;-16.60;66.91;138275.94;107228;1266;25395;-60
2024/01/12 10:17:29;;;;;;;12.30;5.20;;;;;;;-16.59;66.85;138277.91;106991;1263;25347;-62
2024/01/12 10:20:16;;;;;;;9.90;4.80;;;;;;;-16.55;67.23;138285.97;107084;1258;25411;-60
2024/01/12 10:23:03;;;;;;;10.40;4.70;;;;;;;-16.51;66.66;138295.52;107053;1273;25334;-60
2024/01/12 10:26:00;;;;;;;7.90;3.60;;;;;;;-16.54;66.25;138289.63;108450;1256;22528;-61
2024/01/12 10:28:46;;;;;;;9.40;3.10;;;;;;;-16.53;66.23;138292.09;107854;1260;22546;-60
2024/01/12 10:31:38;;;;;;;10.60;4.40;;;;;;;-16.57;66.33;138281.56;106886;1267;26507;-60
2024/01/12 10:34:27;;;;;;;11.10;4.20;;;;;;;-16.50;66.30;138298.44;107224;1257;25357;-60
2024/01/12 10:37:17;;;;;;;9.30;4.00;;;;;;;-16.45;65.84;138310.67;107277;1266;25334;-58
2024/01/12 10:40:06;;;;;;;9.60;4.60;;;;;;;-16.43;65.68;138315.58;107147;1264;25522;-60
2024/01/12 10:42:57;;;;;;;5.80;2.50;;;;;;;-16.33;65.31;138338.08;107761;1253;22517;-60
2024/01/12 10:45:44;;;;;;;;;;;;;;;-16.35;64.65;138334.41;108315;1258;22641;-70
2024/01/12 10:48:36;;;;;;;9.60;4.50;;;;;;;-16.32;65.36;138341.25;108002;1261;22598;-63
2024/01/12 10:51:30;;;;;;;6.70;2.80;;;;;;;-16.36;65.27;138330.98;107006;1263;25520;-61
2024/01/12 10:54:27;;;;;;;8.70;4.10;;;;;;;-16.37;65.84;138328.53;106988;1254;25392;-62
2024/01/12 10:57:14;;;;;;;9.00;3.50;;;;;;;-16.11;65.86;138391.91;107174;1263;25350;-62
2024/01/12 11:00:00;;;;;;;12.40;5.20;;;;;;;-15.81;65.15;138462.64;107286;1267;23427;-62
2024/01/12 11:02:49;;;;;;;8.60;3.40;;;;;;;-15.65;64.43;138501.50;108295;1254;25488;-59
2024/01/12 11:05:36;;;;;;;7.40;3.80;;;;;;;-15.65;63.63;138502.73;107419;1263;24308;-60
2024/01/12 11:08:25;;;;;;;10.00;3.70;;;;;;;-15.66;63.48;138499.55;107829;1266;25406;-60
2024/01/12 11:11:15;;;;;;;11.10;4.60;;;;;;;-15.61;63.44;138511.80;108017;1260;25421;-60
2024/01/12 11:14:03;;;;;;;10.90;4.20;;;;;;;-15.53;63.23;138531.14;107607;1257;25385;-60
2024/01/12 11:16:50;;;;;;;9.50;4.30;;;;;;;-15.53;62.59;138531.38;107526;1257;22521;-61
2024/01/12 11:19:36;;;;;;;10.70;4.20;;;;;;;-15.60;63.01;138514.97;107665;1263;25439;-60
2024/01/12 11:22:23;;;;;;;11.10;4.80;;;;;;;-15.52;63.28;138532.36;107535;1259;25355;-60
2024/01/12 11:25:11;;;;;;;12.90;5.20;;;;;;;-15.41;63.07;138560.28;107508;1254;25411;-61
2024/01/12 11:27:57;;;;;;;12.70;4.80;;;;;;;-15.36;62.77;138570.30;107194;1260;25362;-60
2024/01/12 11:30:42;;;;;;;12.40;5.50;;;;;;;-15.36;63.07;138572.53;107005;1260;25325;-60
2024/01/12 11:33:28;;;;;;;11.00;4.80;;;;;;;-15.26;62.10;138595.55;107186;1263;25515;-61
2024/01/12 11:36:17;;;;;;;8.90;3.90;;;;;;;-15.29;61.42;138588.20;106952;1273;25428;-61
2024/01/12 11:39:04;;;;;;;6.40;2.70;;;;;;;-15.38;60.95;138566.39;106942;1261;23864;-62
2024/01/12 11:41:54;;;;;;;6.00;2.70;;;;;;;-15.70;59.69;138490.27;106962;1260;25348;-62
2024/01/12 11:44:40;;;;;;;5.00;2.40;;;;;;;-15.97;59.82;138424.94;106796;1269;25390;-62
2024/01/12 11:47:29;;;;;;;6.50;3.10;;;;;;;-16.17;60.44;138377.72;107508;1259;25447;-62
2024/01/12 11:50:15;;;;;;;11.00;3.40;;;;;;;-16.31;60.58;138343.94;107686;1267;22523;-62
2024/01/12 11:53:02;;;;;;;10.70;5.10;;;;;;;-16.41;60.75;138320.22;107362;1263;23129;-62
2024/01/12 11:55:48;;;;;;;12.70;5.30;;;;;;;-16.24;61.36;138359.84;107455;1257;22534;-62
2024/01/12 11:58:36;;;;;;;8.10;3.30;;;;;;;-15.94;61.06;138433.48;107503;1257;25357;-62
2024/01/12 12:01:24;;;;;;;12.10;5.00;;;;;;;-15.73;60.77;138482.20;107395;1253;22968;-62
2024/01/12 12:04:10;;;;;;;13.50;5.30;;;;;;;-15.55;60.76;138525.25;107857;1260;23639;-62
2024/01/12 12:06:55;;;;;;;10.90;4.20;;;;;;;-15.29;60.61;138587.70;107323;1257;22889;-62
2024/01/12 12:09:41;;;;;;;9.90;3.90;;;;;;;-15.05;60.19;138644.30;107127;1260;25497;-62
2024/01/12 12:12:28;;;;;;;7.50;2.90;;;;;;;-14.93;58.62;138674.91;107518;1255;24315;-62
2024/01/12 12:15:14;;;;;;;7.30;3.00;;;;;;;-14.94;57.95;138671.22;107779;1257;23960;-62
2024/01/12 12:18:00;;;;;;;9.80;3.50;;;;;;;-14.97;58.00;138666.08;107519;1253;25297;-62
2024/01/12 12:20:47;;;;;;;11.20;4.40;;;;;;;-15.05;57.86;138644.78;107386;1266;25338;-62
2024/01/12 12:23:33;;;;;;;7.30;3.30;;;;;;;-15.05;57.28;138644.28;107571;1273;25338;-62
2024/01/12 12:26:19;;;;;;;7.50;3.40;;;;;;;-15.03;56.56;138649.66;107859;1258;23435;-62
2024/01/12 12:29:05;;;;;;;15.60;7.50;;;;;;;-15.19;56.58;138613.67;107957;1260;25375;-63
2024/01/12 12:31:53;;;;;;;9.70;4.60;;;;;;;-15.23;57.19;138602.64;107534;1257;24214;-60